Time,TemperatureF,DewpointF,PressureIn,WindDirection,WindDirectionDegrees,WindSpeedMPH,WindSpeedGustMPH,Humidity,HourlyPrecipIn,Conditions,Clouds,dailyrainin,SoftwareType,DateUTC
2013-02-12 00:00:00,45.2,24.5,30.01,NW,305,0.0,9.0,44,-0.25,,,0.00,Weather View 32 v70,2013-02-12 05:00:00,
2013-02-12 00:05:00,45.4,25.8,30.01,WNW,299,0.0,9.0,46,-0.25,,,0.00,Weather View 32 v70,2013-02-12 05:05:00,
2013-02-12 00:10:00,44.6,30.3,30.01,SW,222,1.0,9.0,57,-0.25,,,0.00,Weather View 32 v70,2013-02-12 05:10:00,
2013-02-12 00:15:00,43.2,31.0,30.01,SW,222,3.0,9.0,62,-0.25,,,0.00,Weather View 32 v70,2013-02-12 05:15:00,
2013-02-12 00:20:00,42.2,32.4,30.00,SW,214,4.0,9.0,68,-0.25,,,0.00,Weather View 32 v70,2013-02-12 05:20:00,
2013-02-12 00:25:00,41.7,32.3,30.00,SW,219,2.0,9.0,69,-0.25,,,0.00,Weather View 32 v70,2013-02-12 05:25:00,
2013-02-12 00:30:00,41.3,30.8,30.00,SW,220,0.0,9.0,66,-0.25,,,0.00,Weather View 32 v70,2013-02-12 05:30:00,
2013-02-12 00:35:00,41.3,32.2,29.99,SW,222,0.0,9.0,70,-0.25,,,0.00,Weather View 32 v70,2013-02-12 05:35:00,
2013-02-12 00:40:00,41.2,32.5,30.00,SW,233,0.0,9.0,71,-0.25,,,0.00,Weather View 32 v70,2013-02-12 05:40:00,
2013-02-12 00:45:00,41.0,33.0,30.00,SSW,209,2.0,9.0,73,-0.25,,,0.00,Weather View 32 v70,2013-02-12 05:45:00,
2013-02-12 00:50:00,40.9,32.2,30.00,SSW,211,0.0,9.0,71,-0.25,,,0.00,Weather View 32 v70,2013-02-12 05:50:00,
2013-02-12 00:55:00,40.8,33.5,30.00,SSW,213,0.0,5.0,75,-0.25,,,0.00,Weather View 32 v70,2013-02-12 05:55:00,
2013-02-12 01:00:00,40.5,32.9,29.99,SW,225,2.0,4.0,74,0.00,,,0.00,Weather View 32 v70,2013-02-12 06:00:00,
2013-02-12 01:05:00,40.6,33.0,29.99,SE,141,0.0,4.0,74,0.00,,,0.00,Weather View 32 v70,2013-02-12 06:05:00,
2013-02-12 01:10:00,40.2,32.2,29.99,SSW,208,0.0,4.0,73,0.00,,,0.00,Weather View 32 v70,2013-02-12 06:10:00,
2013-02-12 01:15:00,40.1,32.8,29.99,SSE,148,1.0,4.0,75,0.00,,,0.00,Weather View 32 v70,2013-02-12 06:15:00,
2013-02-12 01:20:00,39.5,33.5,29.99,SSW,211,2.0,4.0,79,0.00,,,0.00,Weather View 32 v70,2013-02-12 06:20:00,
2013-02-12 01:25:00,39.1,33.1,30.00,SSW,204,1.0,4.0,79,0.00,,,0.00,Weather View 32 v70,2013-02-12 06:25:00,
2013-02-12 01:30:00,38.8,33.8,30.00,SW,224,0.0,4.0,82,0.00,,,0.00,Weather View 32 v70,2013-02-12 06:30:00,
2013-02-12 01:35:00,38.2,32.6,29.99,SW,222,3.0,5.0,80,0.00,,,0.00,Weather View 32 v70,2013-02-12 06:35:00,
2013-02-12 01:40:00,38.0,30.8,29.99,SSE,164,0.0,5.0,75,0.00,,,0.00,Weather View 32 v70,2013-02-12 06:40:00,
2013-02-12 01:45:00,38.3,32.0,30.00,West,274,0.0,5.0,78,0.00,,,0.00,Weather View 32 v70,2013-02-12 06:45:00,
2013-02-12 01:50:00,38.1,32.8,30.00,SW,234,2.0,5.0,81,0.00,,,0.00,Weather View 32 v70,2013-02-12 06:50:00,
2013-02-12 01:55:00,38.5,30.3,29.99,SW,217,2.0,5.0,72,0.00,,,0.00,Weather View 32 v70,2013-02-12 06:55:00,
2013-02-12 02:00:00,38.9,31.3,30.00,South,178,0.0,5.0,74,0.00,,,0.00,Weather View 32 v70,2013-02-12 07:00:00,
2013-02-12 02:05:00,38.9,31.0,30.00,WNW,287,0.0,5.0,73,0.00,,,0.00,Weather View 32 v70,2013-02-12 07:05:00,
2013-02-12 02:10:00,39.1,31.2,30.00,SSE,149,0.0,5.0,73,0.00,,,0.00,Weather View 32 v70,2013-02-12 07:10:00,
2013-02-12 02:15:00,39.1,31.5,30.00,SSE,166,0.0,5.0,74,0.00,,,0.00,Weather View 32 v70,2013-02-12 07:15:00,
2013-02-12 02:20:00,39.3,32.0,30.00,SW,226,0.0,5.0,75,0.00,,,0.00,Weather View 32 v70,2013-02-12 07:20:00,
2013-02-12 02:25:00,39.5,31.9,30.01,SW,234,0.0,5.0,74,0.00,,,0.00,Weather View 32 v70,2013-02-12 07:25:00,
2013-02-12 02:30:00,39.6,32.0,30.01,SSW,204,0.0,5.0,74,0.00,,,0.00,Weather View 32 v70,2013-02-12 07:30:00,
2013-02-12 02:35:00,39.5,29.8,30.01,West,260,0.0,4.0,68,0.00,,,0.00,Weather View 32 v70,2013-02-12 07:35:00,
2013-02-12 02:40:00,40.3,31.3,29.99,SSW,205,0.0,4.0,70,0.00,,,0.00,Weather View 32 v70,2013-02-12 07:40:00,
2013-02-12 02:45:00,40.4,31.0,29.99,North,5,0.0,4.0,69,0.00,,,0.00,Weather View 32 v70,2013-02-12 07:45:00,
2013-02-12 02:50:00,41.0,32.7,30.00,South,172,0.0,5.0,72,0.00,,,0.00,Weather View 32 v70,2013-02-12 07:50:00,
2013-02-12 02:55:00,41.2,29.9,30.00,SSW,206,0.0,5.0,64,0.00,,,0.00,Weather View 32 v70,2013-02-12 07:55:00,
2013-02-12 03:00:00,41.6,25.3,29.98,WNW,295,2.0,5.0,52,0.00,,,0.00,Weather View 32 v70,2013-02-12 08:00:00,
2013-02-12 03:05:00,42.3,26.4,29.98,SSW,207,0.0,5.0,53,0.00,,,0.00,Weather View 32 v70,2013-02-12 08:05:00,
2013-02-12 03:10:00,42.4,26.9,29.98,SSW,212,0.0,5.0,54,0.00,,,0.00,Weather View 32 v70,2013-02-12 08:10:00,
2013-02-12 03:15:00,42.2,29.7,29.99,SW,229,0.0,5.0,61,0.00,,,0.00,Weather View 32 v70,2013-02-12 08:15:00,
2013-02-12 03:20:00,42.7,26.3,29.99,NNE,23,0.0,5.0,52,0.00,,,0.00,Weather View 32 v70,2013-02-12 08:20:00,
2013-02-12 03:25:00,42.7,27.2,29.98,NNE,23,0.0,5.0,54,0.00,,,0.00,Weather View 32 v70,2013-02-12 08:25:00,
2013-02-12 03:30:00,42.5,25.6,29.98,WNW,290,0.0,5.0,51,0.00,,,0.00,Weather View 32 v70,2013-02-12 08:30:00,
2013-02-12 03:36:00,42.4,24.6,29.97,NW,313,0.0,5.0,49,0.00,,,0.00,Weather View 32 v70,2013-02-12 08:36:00,
2013-02-12 03:41:00,42.5,25.6,29.97,NNW,333,0.0,5.0,51,0.00,,,0.00,Weather View 32 v70,2013-02-12 08:41:00,
2013-02-12 03:46:00,42.2,29.7,29.98,SE,124,0.0,5.0,61,0.00,,,0.00,Weather View 32 v70,2013-02-12 08:46:00,
2013-02-12 03:51:00,41.4,29.3,29.98,SSW,206,1.0,5.0,62,0.00,,,0.00,Weather View 32 v70,2013-02-12 08:51:00,
2013-02-12 03:56:00,41.0,28.6,30.00,SSW,200,0.0,5.0,61,0.00,,,0.00,Weather View 32 v70,2013-02-12 08:56:00,
2013-02-12 04:01:00,41.1,25.7,29.99,WSW,248,0.0,5.0,54,0.00,,,0.00,Weather View 32 v70,2013-02-12 09:01:00,
2013-02-12 04:06:00,41.5,26.5,30.00,SW,232,2.0,5.0,55,0.00,,,0.00,Weather View 32 v70,2013-02-12 09:06:00,
2013-02-12 04:11:00,41.4,26.9,29.99,West,267,0.0,5.0,56,0.00,,,0.00,Weather View 32 v70,2013-02-12 09:11:00,
2013-02-12 04:16:00,41.5,27.4,30.00,SW,236,0.0,5.0,57,0.00,,,0.00,Weather View 32 v70,2013-02-12 09:16:00,
2013-02-12 04:21:00,41.0,26.0,29.99,WSW,246,0.0,3.0,55,0.00,,,0.00,Weather View 32 v70,2013-02-12 09:21:00,
2013-02-12 04:26:00,40.6,25.7,29.99,West,260,2.0,3.0,55,0.00,,,0.00,Weather View 32 v70,2013-02-12 09:26:00,
2013-02-12 04:31:00,40.5,26.4,29.98,SW,227,0.0,4.0,57,0.00,,,0.00,Weather View 32 v70,2013-02-12 09:31:00,
2013-02-12 04:36:00,39.9,25.0,29.98,WSW,245,0.0,4.0,55,0.00,,,0.00,Weather View 32 v70,2013-02-12 09:36:00,
2013-02-12 04:41:00,39.6,25.6,29.98,WSW,247,0.0,4.0,57,0.00,,,0.00,Weather View 32 v70,2013-02-12 09:41:00,
2013-02-12 04:46:00,39.4,27.1,29.98,NNE,20,0.0,4.0,61,0.00,,,0.00,Weather View 32 v70,2013-02-12 09:46:00,
2013-02-12 04:51:00,39.0,25.9,29.98,SSW,211,0.0,5.0,59,0.00,,,0.00,Weather View 32 v70,2013-02-12 09:51:00,
2013-02-12 04:56:00,39.5,26.7,30.00,East,84,0.0,5.0,60,0.00,,,0.00,Weather View 32 v70,2013-02-12 09:56:00,
2013-02-12 05:01:00,39.2,28.4,30.00,WSW,238,0.0,5.0,65,0.00,,,0.00,Weather View 32 v70,2013-02-12 10:01:00,
2013-02-12 05:06:00,38.5,27.7,30.00,SSW,193,0.0,5.0,65,0.00,,,0.00,Weather View 32 v70,2013-02-12 10:06:00,
2013-02-12 05:11:00,38.1,28.5,30.00,SSE,148,0.0,5.0,68,0.00,,,0.00,Weather View 32 v70,2013-02-12 10:11:00,
2013-02-12 05:16:00,37.5,29.3,29.99,SSE,166,0.0,5.0,72,0.00,,,0.00,Weather View 32 v70,2013-02-12 10:16:00,
2013-02-12 05:21:00,36.9,27.3,29.97,West,273,3.0,5.0,68,0.00,,,0.00,Weather View 32 v70,2013-02-12 10:21:00,
2013-02-12 05:26:00,37.2,25.8,29.96,WSW,249,1.0,5.0,63,0.00,,,0.00,Weather View 32 v70,2013-02-12 10:26:00,
2013-02-12 05:31:00,38.3,24.8,29.97,NNW,332,3.0,5.0,58,0.00,,,0.00,Weather View 32 v70,2013-02-12 10:31:00,
2013-02-12 05:36:00,38.3,27.9,29.97,SSW,213,0.0,5.0,66,0.00,,,0.00,Weather View 32 v70,2013-02-12 10:36:00,
2013-02-12 05:41:00,37.7,27.0,29.97,SSW,207,2.0,5.0,65,0.00,,,0.00,Weather View 32 v70,2013-02-12 10:41:00,
2013-02-12 05:46:00,37.0,28.5,29.98,SSW,211,0.0,5.0,71,0.00,,,0.00,Weather View 32 v70,2013-02-12 10:46:00,
2013-02-12 05:51:00,36.5,28.3,30.00,SSW,207,2.0,5.0,72,0.00,,,0.00,Weather View 32 v70,2013-02-12 10:51:00,
2013-02-12 05:56:00,36.0,27.8,29.99,SSW,210,2.0,5.0,72,0.00,,,0.00,Weather View 32 v70,2013-02-12 10:56:00,
2013-02-12 06:01:00,36.1,28.3,29.98,WSW,240,0.0,5.0,73,0.00,,,0.00,Weather View 32 v70,2013-02-12 11:01:00,
2013-02-12 06:06:00,36.3,26.4,29.98,SW,236,2.0,5.0,67,0.00,,,0.00,Weather View 32 v70,2013-02-12 11:06:00,
2013-02-12 06:11:00,36.4,26.1,29.97,WSW,240,0.0,5.0,66,0.00,,,0.00,Weather View 32 v70,2013-02-12 11:11:00,
2013-02-12 06:17:00,36.4,28.6,29.98,SSW,205,2.0,5.0,73,0.00,,,0.00,Weather View 32 v70,2013-02-12 11:17:00,
2013-02-12 06:22:00,36.3,29.1,29.98,SSE,155,0.0,4.0,75,0.00,,,0.00,Weather View 32 v70,2013-02-12 11:22:00,
2013-02-12 06:27:00,36.1,29.6,29.98,SSW,204,2.0,4.0,77,0.00,,,0.00,Weather View 32 v70,2013-02-12 11:27:00,
2013-02-12 06:32:00,36.0,30.1,29.99,SSW,199,0.0,4.0,79,0.00,,,0.00,Weather View 32 v70,2013-02-12 11:32:00,
2013-02-12 06:37:00,35.8,29.9,29.99,SW,226,2.0,3.0,79,0.00,,,0.00,Weather View 32 v70,2013-02-12 11:37:00,
2013-02-12 06:42:00,36.0,28.2,29.99,NW,324,0.0,3.0,73,0.00,,,0.00,Weather View 32 v70,2013-02-12 11:42:00,
2013-02-12 06:47:00,36.4,29.2,30.00,SW,216,0.0,3.0,75,0.00,,,0.00,Weather View 32 v70,2013-02-12 11:47:00,
2013-02-12 06:52:00,36.5,29.3,30.00,South,169,0.0,3.0,75,0.00,,,0.00,Weather View 32 v70,2013-02-12 11:52:00,
2013-02-12 06:57:00,36.7,28.2,30.01,WSW,251,0.0,3.0,71,0.00,,,0.00,Weather View 32 v70,2013-02-12 11:57:00,
2013-02-12 07:02:00,36.8,31.2,30.01,SSW,205,0.0,3.0,80,0.00,,,0.00,Weather View 32 v70,2013-02-12 12:02:00,
2013-02-12 07:07:00,36.7,29.8,30.01,SSW,205,0.0,3.0,76,0.00,,,0.00,Weather View 32 v70,2013-02-12 12:07:00,
2013-02-12 07:12:00,36.8,30.9,30.02,SSW,212,0.0,3.0,79,0.00,,,0.00,Weather View 32 v70,2013-02-12 12:12:00,
2013-02-12 07:17:00,36.6,31.3,30.01,SSW,209,0.0,3.0,81,0.00,,,0.00,Weather View 32 v70,2013-02-12 12:17:00,
2013-02-12 07:22:00,36.4,29.9,30.00,SSW,207,0.0,3.0,77,0.00,,,0.00,Weather View 32 v70,2013-02-12 12:22:00,
2013-02-12 07:27:00,36.4,29.6,29.99,SSW,212,0.0,3.0,76,0.00,,,0.00,Weather View 32 v70,2013-02-12 12:27:00,
2013-02-12 07:32:00,36.4,30.5,30.01,East,87,0.0,3.0,79,0.00,,,0.00,Weather View 32 v70,2013-02-12 12:32:00,
2013-02-12 07:37:00,36.5,30.0,30.00,SSW,205,2.0,3.0,77,0.00,,,0.00,Weather View 32 v70,2013-02-12 12:37:00,
2013-02-12 07:42:00,36.3,29.5,30.00,WSW,237,0.0,3.0,76,0.00,,,0.00,Weather View 32 v70,2013-02-12 12:42:00,
2013-02-12 07:47:00,36.4,29.9,30.01,SW,216,0.0,3.0,77,0.00,,,0.00,Weather View 32 v70,2013-02-12 12:47:00,
2013-02-12 07:52:00,36.4,30.2,30.01,South,184,0.0,3.0,78,0.00,,,0.00,Weather View 32 v70,2013-02-12 12:52:00,
2013-02-12 07:57:00,36.5,29.6,30.01,SW,225,0.0,3.0,76,0.00,,,0.00,Weather View 32 v70,2013-02-12 12:57:00,
2013-02-12 08:02:00,36.8,30.9,30.02,SW,225,0.0,3.0,79,0.00,,,0.00,Weather View 32 v70,2013-02-12 13:02:00,
2013-02-12 08:07:00,37.0,31.7,30.02,SW,224,0.0,3.0,81,0.00,,,0.00,Weather View 32 v70,2013-02-12 13:07:00,
2013-02-12 08:12:00,37.1,32.1,30.02,SSW,209,0.0,3.0,82,0.00,,,0.00,Weather View 32 v70,2013-02-12 13:12:00,
2013-02-12 08:17:00,37.2,31.9,30.01,SSW,209,0.0,3.0,81,0.00,,,0.00,Weather View 32 v70,2013-02-12 13:17:00,
2013-02-12 08:22:00,37.3,32.0,30.02,SSW,210,0.0,3.0,81,0.00,,,0.00,Weather View 32 v70,2013-02-12 13:22:00,
2013-02-12 08:27:00,37.5,31.9,30.02,SSW,210,0.0,3.0,80,0.00,,,0.00,Weather View 32 v70,2013-02-12 13:27:00,
2013-02-12 08:32:00,37.8,33.4,30.02,SSW,206,1.0,3.0,84,0.00,,,0.00,Weather View 32 v70,2013-02-12 13:32:00,
2013-02-12 08:37:00,38.0,33.6,30.02,SSW,206,0.0,2.0,84,0.00,,,0.00,Weather View 32 v70,2013-02-12 13:37:00,
2013-02-12 08:42:00,38.2,32.9,30.02,SSW,206,0.0,2.0,81,0.00,,,0.00,Weather View 32 v70,2013-02-12 13:42:00,
2013-02-12 08:47:00,38.6,33.3,30.02,NNE,26,0.0,2.0,81,0.00,,,0.00,Weather View 32 v70,2013-02-12 13:47:00,
2013-02-12 08:52:00,38.8,33.8,30.02,NNE,26,0.0,2.0,82,0.00,,,0.00,Weather View 32 v70,2013-02-12 13:52:00,
2013-02-12 08:57:00,39.0,33.3,30.02,NNE,26,0.0,2.0,80,0.00,,,0.00,Weather View 32 v70,2013-02-12 13:57:00,
2013-02-12 09:03:00,39.2,33.2,30.02,NNE,26,0.0,2.0,79,0.00,,,0.00,Weather View 32 v70,2013-02-12 14:03:00,
2013-02-12 09:08:00,39.2,29.9,30.02,NNE,26,0.0,2.0,69,0.00,,,0.00,Weather View 32 v70,2013-02-12 14:08:00,
2013-02-12 09:13:00,39.3,28.5,30.02,NW,311,0.0,2.0,65,0.25,,,0.00,Weather View 32 v70,2013-02-12 14:13:00,
2013-02-12 09:18:00,39.7,28.1,30.02,West,260,0.0,2.0,63,0.00,,,0.00,Weather View 32 v70,2013-02-12 14:18:00,
2013-02-12 09:23:00,39.9,28.3,30.02,West,259,0.0,2.0,63,0.00,,,0.00,Weather View 32 v70,2013-02-12 14:23:00,
2013-02-12 09:28:00,40.2,28.6,30.02,NNW,346,0.0,2.0,63,0.00,,,0.00,Weather View 32 v70,2013-02-12 14:28:00,
2013-02-12 09:33:00,40.3,28.3,30.01,WSW,258,0.0,2.0,62,0.00,,,0.00,Weather View 32 v70,2013-02-12 14:33:00,
2013-02-12 09:38:00,40.3,29.1,30.02,WSW,237,0.0,0.0,64,0.00,,,0.00,Weather View 32 v70,2013-02-12 14:38:00,
2013-02-12 09:43:00,40.3,28.7,30.01,SW,227,0.0,0.0,63,0.00,,,0.00,Weather View 32 v70,2013-02-12 14:43:00,
2013-02-12 09:48:00,40.7,27.9,30.01,SW,235,0.0,0.0,60,0.00,,,0.00,Weather View 32 v70,2013-02-12 14:48:00,
2013-02-12 09:53:00,41.2,27.9,30.01,ENE,70,0.0,0.0,59,0.00,,,0.00,Weather View 32 v70,2013-02-12 14:53:00,
2013-02-12 09:58:00,41.9,26.9,30.01,WSW,257,0.0,0.0,55,0.00,,,0.00,Weather View 32 v70,2013-02-12 14:58:00,
2013-02-12 10:03:00,42.3,27.7,30.00,NNE,32,0.0,0.0,56,0.00,,,0.00,Weather View 32 v70,2013-02-12 15:03:00,
2013-02-12 10:08:00,42.8,26.4,30.00,NE,39,0.0,2.0,52,0.00,,,0.00,Weather View 32 v70,2013-02-12 15:08:00,
2013-02-12 10:13:00,43.3,26.8,30.00,East,81,0.0,2.0,52,0.00,,,0.00,Weather View 32 v70,2013-02-12 15:13:00,
2013-02-12 10:18:00,43.8,26.3,30.00,North,5,0.0,2.0,50,0.00,,,0.00,Weather View 32 v70,2013-02-12 15:18:00,
2013-02-12 10:23:00,44.1,25.6,30.00,East,99,0.0,2.0,48,0.00,,,0.00,Weather View 32 v70,2013-02-12 15:23:00,
2013-02-12 10:28:00,44.5,27.5,30.00,East,98,0.0,2.0,51,0.00,,,0.00,Weather View 32 v70,2013-02-12 15:28:00,
2013-02-12 10:33:00,44.9,26.9,30.00,NW,309,0.0,2.0,49,0.00,,,0.00,Weather View 32 v70,2013-02-12 15:33:00,
2013-02-12 10:38:00,45.4,26.3,29.98,NNW,340,0.0,2.0,47,0.00,,,0.00,Weather View 32 v70,2013-02-12 15:38:00,
2013-02-12 10:43:00,45.7,26.6,29.98,NNE,23,0.0,2.0,47,0.00,,,0.00,Weather View 32 v70,2013-02-12 15:43:00,
2013-02-12 10:48:00,45.9,26.3,29.98,North,354,3.0,3.0,46,0.00,,,0.00,Weather View 32 v70,2013-02-12 15:48:00,
2013-02-12 10:53:00,46.2,26.0,29.97,ENE,69,0.0,3.0,45,0.00,,,0.00,Weather View 32 v70,2013-02-12 15:53:00,
2013-02-12 10:58:00,46.4,25.6,29.97,NE,36,2.0,3.0,44,0.00,,,0.00,Weather View 32 v70,2013-02-12 15:58:00,
2013-02-12 11:03:00,46.9,26.6,29.99,East,87,4.0,4.0,45,0.00,,,0.00,Weather View 32 v70,2013-02-12 16:03:00,
2013-02-12 11:08:00,47.6,27.8,29.99,NNE,19,0.0,5.0,46,0.00,,,0.00,Weather View 32 v70,2013-02-12 16:08:00,
2013-02-12 11:13:00,48.0,28.7,29.99,NE,41,0.0,5.0,47,0.00,,,0.00,Weather View 32 v70,2013-02-12 16:13:00,
2013-02-12 11:18:00,48.4,29.6,29.98,East,82,0.0,5.0,48,0.00,,,0.00,Weather View 32 v70,2013-02-12 16:18:00,
2013-02-12 11:23:00,48.1,27.2,29.98,NW,305,0.0,5.0,44,0.00,,,0.00,Weather View 32 v70,2013-02-12 16:23:00,
2013-02-12 11:28:00,48.1,27.2,29.98,North,351,3.0,5.0,44,0.00,,,0.00,Weather View 32 v70,2013-02-12 16:28:00,
2013-02-12 11:33:00,48.1,27.2,29.98,North,356,2.0,5.0,44,0.00,,,0.00,Weather View 32 v70,2013-02-12 16:33:00,
2013-02-12 11:39:00,48.2,27.3,29.98,NNE,28,2.0,5.0,44,0.00,,,0.00,Weather View 32 v70,2013-02-12 16:39:00,
2013-02-12 11:44:00,48.6,27.6,29.98,East,96,2.0,5.0,44,0.00,,,0.00,Weather View 32 v70,2013-02-12 16:44:00,
2013-02-12 11:49:00,49.1,27.5,29.99,North,349,0.0,5.0,43,0.00,,,0.00,Weather View 32 v70,2013-02-12 16:49:00,
2013-02-12 11:54:00,49.5,29.5,29.98,NNE,20,1.0,5.0,46,0.00,,,0.00,Weather View 32 v70,2013-02-12 16:54:00,
2013-02-12 11:59:00,49.7,29.7,29.98,NNE,24,0.0,5.0,46,0.00,,,0.00,Weather View 32 v70,2013-02-12 16:59:00,
2013-02-12 12:04:00,49.5,27.9,29.98,North,349,1.0,5.0,43,0.00,,,0.00,Weather View 32 v70,2013-02-12 17:04:00,
2013-02-12 12:09:00,49.3,28.3,29.98,NNE,26,2.0,4.0,44,0.00,,,0.00,Weather View 32 v70,2013-02-12 17:09:00,
2013-02-12 12:14:00,49.2,28.2,29.99,North,353,2.0,4.0,44,0.00,,,0.00,Weather View 32 v70,2013-02-12 17:14:00,
2013-02-12 12:19:00,49.2,28.2,29.99,North,355,0.0,4.0,44,0.00,,,0.00,Weather View 32 v70,2013-02-12 17:19:00,
2013-02-12 12:24:00,49.3,28.3,29.99,NNW,348,0.0,4.0,44,0.00,,,0.00,Weather View 32 v70,2013-02-12 17:24:00,
2013-02-12 12:29:00,49.6,28.0,29.98,North,5,0.0,4.0,43,0.00,,,0.00,Weather View 32 v70,2013-02-12 17:29:00,
2013-02-12 12:34:00,49.8,28.7,29.98,North,356,0.0,4.0,44,0.00,,,0.00,Weather View 32 v70,2013-02-12 17:34:00,
2013-02-12 12:39:00,50.0,28.3,29.97,North,7,0.0,4.0,43,0.00,,,0.00,Weather View 32 v70,2013-02-12 17:39:00,
2013-02-12 12:44:00,50.1,27.3,29.96,NNE,22,0.0,4.0,41,0.00,,,0.00,Weather View 32 v70,2013-02-12 17:44:00,
2013-02-12 12:49:00,50.3,27.5,29.97,NNE,29,0.0,4.0,41,0.00,,,0.00,Weather View 32 v70,2013-02-12 17:49:00,
2013-02-12 12:54:00,50.5,27.6,29.96,NNE,29,0.0,4.0,41,0.00,,,0.00,Weather View 32 v70,2013-02-12 17:54:00,
2013-02-12 12:59:00,50.6,27.7,29.96,East,79,0.0,4.0,41,0.00,,,0.00,Weather View 32 v70,2013-02-12 17:59:00,
2013-02-12 13:04:00,50.7,27.8,29.96,ENE,66,0.0,4.0,41,0.00,,,0.00,Weather View 32 v70,2013-02-12 18:04:00,
2013-02-12 13:09:00,50.7,27.8,29.96,ENE,66,0.0,4.0,41,0.00,,,0.00,Weather View 32 v70,2013-02-12 18:09:00,
2013-02-12 13:14:00,50.8,28.5,29.96,ENE,66,0.0,4.0,42,0.00,,,0.00,Weather View 32 v70,2013-02-12 18:14:00,
2013-02-12 13:19:00,50.9,29.7,29.95,ENE,72,0.0,2.0,44,0.00,,,0.00,Weather View 32 v70,2013-02-12 18:19:00,
2013-02-12 13:24:00,51.1,28.8,29.95,ENE,74,0.0,2.0,42,0.00,,,0.00,Weather View 32 v70,2013-02-12 18:24:00,
2013-02-12 13:29:00,51.3,29.5,29.95,ENE,74,0.0,2.0,43,0.00,,,0.00,Weather View 32 v70,2013-02-12 18:29:00,
2013-02-12 13:34:00,51.2,26.4,29.96,North,356,0.0,2.0,38,0.00,,,0.00,Weather View 32 v70,2013-02-12 18:34:00,
2013-02-12 13:39:00,51.3,25.9,29.96,North,6,0.0,2.0,37,0.00,,,0.00,Weather View 32 v70,2013-02-12 18:39:00,
2013-02-12 13:44:00,51.4,26.0,29.95,North,6,0.0,2.0,37,0.00,,,0.00,Weather View 32 v70,2013-02-12 18:44:00,
2013-02-12 13:49:00,51.7,27.5,29.94,North,6,0.0,0.0,39,0.00,,,0.00,Weather View 32 v70,2013-02-12 18:49:00,
2013-02-12 13:54:00,51.8,27.0,29.94,North,6,0.0,0.0,38,0.00,,,0.00,Weather View 32 v70,2013-02-12 18:54:00,
2013-02-12 13:59:00,52.0,27.8,29.94,North,6,0.0,0.0,39,0.00,,,0.00,Weather View 32 v70,2013-02-12 18:59:00,
2013-02-12 14:04:00,51.9,28.3,29.94,North,6,0.0,0.0,40,0.00,,,0.00,Weather View 32 v70,2013-02-12 19:04:00,
2013-02-12 14:09:00,51.8,27.6,29.93,North,7,0.0,0.0,39,0.00,,,0.00,Weather View 32 v70,2013-02-12 19:09:00,
2013-02-12 14:14:00,51.9,28.9,29.93,North,7,0.0,0.0,41,0.00,,,0.00,Weather View 32 v70,2013-02-12 19:14:00,
2013-02-12 14:19:00,51.8,32.2,29.93,North,7,0.0,0.0,47,0.00,,,0.00,Weather View 32 v70,2013-02-12 19:19:00,
2013-02-12 14:24:00,51.7,31.5,29.93,North,7,0.0,0.0,46,0.00,,,0.00,Weather View 32 v70,2013-02-12 19:24:00,
2013-02-12 14:29:00,51.4,27.8,29.92,North,8,0.0,0.0,40,0.00,,,0.00,Weather View 32 v70,2013-02-12 19:29:00,
2013-02-12 14:34:00,51.4,27.8,29.93,North,7,0.0,0.0,40,0.00,,,0.00,Weather View 32 v70,2013-02-12 19:34:00,
2013-02-12 14:40:00,51.3,27.8,29.93,North,7,0.0,0.0,40,0.00,,,0.00,Weather View 32 v70,2013-02-12 19:40:00,
2013-02-12 14:45:00,51.2,27.7,29.93,North,7,0.0,0.0,40,0.00,,,0.00,Weather View 32 v70,2013-02-12 19:45:00,
2013-02-12 14:50:00,51.0,28.7,29.93,North,7,0.0,0.0,42,0.00,,,0.00,Weather View 32 v70,2013-02-12 19:50:00,
2013-02-12 14:55:00,50.7,28.4,29.93,North,354,0.0,0.0,42,0.00,,,0.00,Weather View 32 v70,2013-02-12 19:55:00,
2013-02-12 15:00:00,50.6,27.1,29.94,NNW,333,0.0,0.0,40,0.00,,,0.00,Weather View 32 v70,2013-02-12 20:00:00,
2013-02-12 15:05:00,50.6,28.3,29.94,NNW,333,0.0,0.0,42,0.00,,,0.00,Weather View 32 v70,2013-02-12 20:05:00,
2013-02-12 15:10:00,50.5,29.4,29.93,NNW,333,0.0,0.0,44,0.00,,,0.00,Weather View 32 v70,2013-02-12 20:10:00,
2013-02-12 15:15:00,50.5,26.4,29.94,NNW,333,0.0,0.0,39,0.00,,,0.00,Weather View 32 v70,2013-02-12 20:15:00,
2013-02-12 15:20:00,50.3,29.7,29.94,NNW,333,0.0,0.0,45,0.00,,,0.00,Weather View 32 v70,2013-02-12 20:20:00,
2013-02-12 15:25:00,50.2,28.5,29.94,NNW,333,0.0,0.0,43,0.00,,,0.00,Weather View 32 v70,2013-02-12 20:25:00,
2013-02-12 15:30:00,50.1,31.1,29.94,NNW,333,0.0,0.0,48,0.00,,,0.00,Weather View 32 v70,2013-02-12 20:30:00,
2013-02-12 15:35:00,50.0,29.5,29.94,NNW,333,0.0,0.0,45,0.00,,,0.00,Weather View 32 v70,2013-02-12 20:35:00,
2013-02-12 15:40:00,49.9,31.0,29.94,NNW,333,0.0,0.0,48,0.00,,,0.00,Weather View 32 v70,2013-02-12 20:40:00,
2013-02-12 15:45:00,49.8,31.4,29.94,NNW,333,0.0,0.0,49,0.00,,,0.00,Weather View 32 v70,2013-02-12 20:45:00,
2013-02-12 15:50:00,49.6,29.6,29.94,NNW,333,0.0,0.0,46,0.00,,,0.00,Weather View 32 v70,2013-02-12 20:50:00,
2013-02-12 15:55:00,49.5,31.6,29.93,NNW,333,0.0,0.0,50,0.00,,,0.00,Weather View 32 v70,2013-02-12 20:55:00,
2013-02-12 16:00:00,49.2,30.8,29.93,NNW,333,0.0,0.0,49,0.00,,,0.00,Weather View 32 v70,2013-02-12 21:00:00,
2013-02-12 16:05:00,49.1,30.7,29.93,NNW,333,0.0,0.0,49,0.00,,,0.00,Weather View 32 v70,2013-02-12 21:05:00,
2013-02-12 16:10:00,48.8,31.9,29.92,NNW,333,0.0,0.0,52,0.00,,,0.00,Weather View 32 v70,2013-02-12 21:10:00,
2013-02-12 16:15:00,48.7,31.4,29.92,NNW,333,0.0,0.0,51,0.00,,,0.00,Weather View 32 v70,2013-02-12 21:15:00,
2013-02-12 16:20:00,48.7,34.1,29.92,NNW,333,0.0,0.0,57,0.00,,,0.00,Weather View 32 v70,2013-02-12 21:20:00,
2013-02-12 16:25:00,48.6,34.0,29.92,NNW,333,0.0,0.0,57,0.00,,,0.00,Weather View 32 v70,2013-02-12 21:25:00,
2013-02-12 16:30:00,48.3,34.6,29.91,NNW,333,0.0,0.0,59,0.00,,,0.00,Weather View 32 v70,2013-02-12 21:30:00,
2013-02-12 16:35:00,47.9,34.2,29.91,NNW,333,0.0,0.0,59,0.00,,,0.00,Weather View 32 v70,2013-02-12 21:35:00,
2013-02-12 16:40:00,47.7,34.9,29.91,NNW,333,0.0,0.0,61,0.00,,,0.00,Weather View 32 v70,2013-02-12 21:40:00,
2013-02-12 16:45:00,47.2,36.0,29.91,NNW,333,0.0,0.0,65,0.00,,,0.00,Weather View 32 v70,2013-02-12 21:45:00,
2013-02-12 16:50:00,47.0,36.2,29.92,NNW,333,0.0,0.0,66,0.00,,,0.00,Weather View 32 v70,2013-02-12 21:50:00,
2013-02-12 16:55:00,46.7,37.1,29.92,NNW,333,0.0,0.0,69,0.00,,,0.00,Weather View 32 v70,2013-02-12 21:55:00,
2013-02-12 17:00:00,46.3,35.9,29.92,NNW,333,0.0,0.0,67,0.00,,,0.00,Weather View 32 v70,2013-02-12 22:00:00,
2013-02-12 17:05:00,46.1,37.2,29.91,NNW,333,0.0,0.0,71,0.00,,,0.00,Weather View 32 v70,2013-02-12 22:05:00,
2013-02-12 17:10:00,45.7,35.7,29.90,NNW,332,0.0,0.0,68,0.00,,,0.00,Weather View 32 v70,2013-02-12 22:10:00,
2013-02-12 17:15:00,44.8,36.7,29.88,SW,218,3.0,3.0,73,0.01,,,0.01,Weather View 32 v70,2013-02-12 22:15:00,
2013-02-12 17:20:00,43.9,37.5,29.87,SSW,209,2.0,3.0,78,0.01,,,0.01,Weather View 32 v70,2013-02-12 22:20:00,
2013-02-12 17:25:00,43.4,38.6,29.86,SSW,211,0.0,3.0,83,0.01,,,0.01,Weather View 32 v70,2013-02-12 22:25:00,
2013-02-12 17:30:00,42.9,38.7,29.84,SSW,213,0.0,3.0,85,0.01,,,0.01,Weather View 32 v70,2013-02-12 22:30:00,
2013-02-12 17:35:00,42.8,39.2,29.85,SSW,213,0.0,3.0,87,0.01,,,0.01,Weather View 32 v70,2013-02-12 22:35:00,
2013-02-12 17:40:00,42.7,39.4,29.85,SSW,213,0.0,3.0,88,0.01,,,0.01,Weather View 32 v70,2013-02-12 22:40:00,
2013-02-12 17:45:00,42.7,40.0,29.85,SW,214,0.0,3.0,90,0.01,,,0.01,Weather View 32 v70,2013-02-12 22:45:00,
2013-02-12 17:50:00,42.6,39.9,29.85,SSW,208,0.0,3.0,90,0.01,,,0.01,Weather View 32 v70,2013-02-12 22:50:00,
2013-02-12 17:55:00,42.6,40.2,29.84,SSW,208,0.0,3.0,91,0.01,,,0.01,Weather View 32 v70,2013-02-12 22:55:00,
2013-02-12 18:00:00,42.6,40.4,29.84,SSW,208,0.0,3.0,92,0.01,,,0.01,Weather View 32 v70,2013-02-12 23:00:00,
2013-02-12 18:05:00,42.7,40.8,29.85,SSW,208,0.0,3.0,93,0.01,,,0.01,Weather View 32 v70,2013-02-12 23:05:00,
2013-02-12 18:10:00,42.5,40.6,29.86,SSW,208,0.0,3.0,93,0.01,,,0.01,Weather View 32 v70,2013-02-12 23:10:00,
2013-02-12 18:15:00,42.4,40.2,29.87,SSW,208,0.0,3.0,92,0.00,,,0.01,Weather View 32 v70,2013-02-12 23:15:00,
2013-02-12 18:20:00,42.4,40.2,29.87,SW,214,0.0,3.0,92,0.00,,,0.01,Weather View 32 v70,2013-02-12 23:20:00,
2013-02-12 18:25:00,42.5,40.3,29.88,SW,214,0.0,2.0,92,0.00,,,0.01,Weather View 32 v70,2013-02-12 23:25:00,
2013-02-12 18:30:00,42.3,40.1,29.89,SSW,212,0.0,1.0,92,0.00,,,0.01,Weather View 32 v70,2013-02-12 23:30:00,
2013-02-12 18:35:00,42.0,40.1,29.89,SSW,205,0.0,1.0,93,0.01,,,0.02,Weather View 32 v70,2013-02-12 23:35:00,
2013-02-12 18:40:00,41.7,40.1,29.89,SSW,211,0.0,1.0,94,0.01,,,0.02,Weather View 32 v70,2013-02-12 23:40:00,
2013-02-12 18:45:00,41.5,40.2,29.90,SSW,211,0.0,1.0,95,0.02,,,0.03,Weather View 32 v70,2013-02-12 23:45:00,
2013-02-12 18:50:00,41.3,40.0,29.90,SSW,211,0.0,0.0,95,0.02,,,0.03,Weather View 32 v70,2013-02-12 23:50:00,
2013-02-12 18:55:00,41.2,40.1,29.90,SSW,211,0.0,0.0,96,0.02,,,0.03,Weather View 32 v70,2013-02-12 23:55:00,
2013-02-12 19:00:00,41.1,40.0,29.90,SSW,211,0.0,0.0,96,0.03,,,0.04,Weather View 32 v70,2013-02-13 00:00:00,
2013-02-12 19:05:00,40.9,40.1,29.91,SSW,211,0.0,0.0,97,0.03,,,0.04,Weather View 32 v70,2013-02-13 00:05:00,
2013-02-12 19:10:00,40.8,40.0,29.90,SSW,211,0.0,0.0,97,0.03,,,0.04,Weather View 32 v70,2013-02-13 00:10:00,
2013-02-12 19:15:00,40.8,40.3,29.89,SSW,210,0.0,0.0,98,0.03,,,0.04,Weather View 32 v70,2013-02-13 00:15:00,
2013-02-12 19:20:00,40.8,40.3,29.89,SSW,210,0.0,0.0,98,0.03,,,0.04,Weather View 32 v70,2013-02-13 00:20:00,
2013-02-12 19:25:00,40.7,40.4,29.88,SSW,210,0.0,0.0,99,0.03,,,0.04,Weather View 32 v70,2013-02-13 00:25:00,
2013-02-12 19:30:00,40.7,40.4,29.89,SSW,209,0.0,0.0,99,0.04,,,0.05,Weather View 32 v70,2013-02-13 00:30:00,
2013-02-12 19:35:00,40.7,40.4,29.90,SSW,209,0.0,0.0,99,0.03,,,0.05,Weather View 32 v70,2013-02-13 00:35:00,
2013-02-12 19:40:00,40.5,40.2,29.89,SSW,211,0.0,0.0,99,0.03,,,0.05,Weather View 32 v70,2013-02-13 00:40:00,
2013-02-12 19:45:00,40.3,40.0,29.89,South,181,0.0,3.0,99,0.02,,,0.05,Weather View 32 v70,2013-02-13 00:45:00,
2013-02-12 19:50:00,40.3,40.3,29.88,SSW,211,0.0,3.0,100,0.03,,,0.06,Weather View 32 v70,2013-02-13 00:50:00,
2013-02-12 19:55:00,40.3,40.3,29.88,SSW,205,0.0,3.0,100,0.03,,,0.06,Weather View 32 v70,2013-02-13 00:55:00,
2013-02-12 20:00:00,40.3,40.3,29.86,SSW,192,0.0,3.0,100,0.02,,,0.06,Weather View 32 v70,2013-02-13 01:00:00,
2013-02-12 20:05:00,40.3,40.3,29.86,East,94,0.0,3.0,100,0.02,,,0.06,Weather View 32 v70,2013-02-13 01:05:00,
2013-02-12 20:10:00,40.4,40.4,29.86,East,91,0.0,3.0,100,0.03,,,0.07,Weather View 32 v70,2013-02-13 01:10:00,
2013-02-12 20:15:00,40.3,40.3,29.87,East,92,0.0,3.0,100,0.03,,,0.07,Weather View 32 v70,2013-02-13 01:15:00,
2013-02-12 20:20:00,40.2,40.2,29.88,East,92,0.0,3.0,100,0.03,,,0.07,Weather View 32 v70,2013-02-13 01:20:00,
2013-02-12 20:25:00,40.2,40.2,29.87,WSW,249,0.0,3.0,100,0.03,,,0.07,Weather View 32 v70,2013-02-13 01:25:00,
2013-02-12 20:30:00,40.1,40.1,29.87,NNE,18,0.0,3.0,100,0.02,,,0.07,Weather View 32 v70,2013-02-13 01:30:00,
2013-02-12 20:35:00,40.1,40.1,29.89,NNE,18,0.0,3.0,100,0.02,,,0.07,Weather View 32 v70,2013-02-13 01:35:00,
2013-02-12 20:40:00,40.1,40.1,29.88,NNE,18,0.0,3.0,100,0.02,,,0.07,Weather View 32 v70,2013-02-13 01:40:00,
2013-02-12 20:45:00,40.1,40.1,29.88,NNE,20,0.0,2.0,100,0.02,,,0.07,Weather View 32 v70,2013-02-13 01:45:00,
2013-02-12 20:50:00,40.1,40.1,29.88,NNE,20,0.0,2.0,100,0.01,,,0.07,Weather View 32 v70,2013-02-13 01:50:00,
2013-02-12 20:55:00,40.2,40.2,29.87,SSE,147,0.0,2.0,100,0.01,,,0.07,Weather View 32 v70,2013-02-13 01:55:00,
2013-02-12 21:00:00,40.2,40.2,29.88,SSE,147,0.0,1.0,100,0.01,,,0.07,Weather View 32 v70,2013-02-13 02:00:00,
2013-02-12 21:05:00,40.2,40.2,29.88,SSE,147,0.0,0.0,100,0.01,,,0.07,Weather View 32 v70,2013-02-13 02:05:00,
2013-02-12 21:10:00,40.2,40.2,29.88,SSE,147,0.0,0.0,100,0.00,,,0.07,Weather View 32 v70,2013-02-13 02:10:00,
2013-02-12 21:15:00,40.2,40.2,29.89,SSE,148,0.0,0.0,100,0.00,,,0.07,Weather View 32 v70,2013-02-13 02:15:00,
2013-02-12 21:20:00,40.1,40.1,29.87,SSE,148,0.0,0.0,100,0.00,,,0.07,Weather View 32 v70,2013-02-13 02:20:00,
2013-02-12 21:25:00,40.2,40.2,29.87,SSE,148,0.0,0.0,100,0.00,,,0.07,Weather View 32 v70,2013-02-13 02:25:00,
2013-02-12 21:30:00,40.2,40.2,29.87,SSE,148,0.0,0.0,100,0.00,,,0.07,Weather View 32 v70,2013-02-13 02:30:00,
2013-02-12 21:35:00,40.2,40.2,29.87,NE,39,0.0,0.0,100,0.00,,,0.07,Weather View 32 v70,2013-02-13 02:35:00,
2013-02-12 21:40:00,40.2,40.2,29.88,ENE,62,0.0,0.0,100,0.00,,,0.07,Weather View 32 v70,2013-02-13 02:40:00,
2013-02-12 21:45:00,39.9,39.9,29.87,NNW,331,0.0,0.0,100,0.00,,,0.07,Weather View 32 v70,2013-02-13 02:45:00,
2013-02-12 21:50:00,39.8,39.8,29.87,North,11,0.0,0.0,100,0.00,,,0.07,Weather View 32 v70,2013-02-13 02:50:00,
2013-02-12 21:56:00,39.7,39.7,29.86,North,6,0.0,0.0,100,0.00,,,0.07,Weather View 32 v70,2013-02-13 02:56:00,
2013-02-12 22:01:00,39.7,39.7,29.86,North,7,0.0,0.0,100,0.00,,,0.07,Weather View 32 v70,2013-02-13 03:01:00,
2013-02-12 22:06:00,39.6,39.6,29.86,North,7,0.0,0.0,100,0.01,,,0.08,Weather View 32 v70,2013-02-13 03:06:00,
2013-02-12 22:11:00,39.6,39.6,29.86,North,7,0.0,0.0,100,0.01,,,0.08,Weather View 32 v70,2013-02-13 03:11:00,
2013-02-12 22:16:00,39.6,39.6,29.85,North,7,0.0,0.0,100,0.01,,,0.08,Weather View 32 v70,2013-02-13 03:16:00,
2013-02-12 22:21:00,39.6,39.6,29.84,North,7,0.0,0.0,100,0.01,,,0.08,Weather View 32 v70,2013-02-13 03:21:00,
2013-02-12 22:26:00,39.6,39.6,29.83,NE,50,0.0,0.0,100,0.01,,,0.08,Weather View 32 v70,2013-02-13 03:26:00,
2013-02-12 22:31:00,39.4,39.4,29.83,NE,51,0.0,0.0,100,0.01,,,0.08,Weather View 32 v70,2013-02-13 03:31:00,
2013-02-12 22:36:00,39.3,39.3,29.84,North,356,5.0,5.0,100,0.01,,,0.08,Weather View 32 v70,2013-02-13 03:36:00,
2013-02-12 22:41:00,39.0,39.0,29.84,ENE,72,0.0,6.0,100,0.01,,,0.08,Weather View 32 v70,2013-02-13 03:41:00,
2013-02-12 22:46:00,38.9,38.9,29.84,NNE,13,0.0,6.0,100,0.01,,,0.08,Weather View 32 v70,2013-02-13 03:46:00,
2013-02-12 22:51:00,38.9,38.9,29.84,WNW,298,0.0,6.0,100,0.01,,,0.08,Weather View 32 v70,2013-02-13 03:51:00,
2013-02-12 22:56:00,39.0,39.0,29.83,East,80,0.0,6.0,100,0.01,,,0.08,Weather View 32 v70,2013-02-13 03:56:00,
2013-02-12 23:01:00,39.0,39.0,29.82,SE,144,0.0,6.0,100,0.01,,,0.08,Weather View 32 v70,2013-02-13 04:01:00,
2013-02-12 23:06:00,39.0,39.0,29.82,ESE,118,0.0,6.0,100,0.17,,,0.08,Weather View 32 v70,2013-02-13 04:06:00,
2013-02-12 23:11:00,38.8,38.8,29.81,NNE,12,0.0,6.0,100,0.17,,,0.08,Weather View 32 v70,2013-02-13 04:11:00,
2013-02-12 23:16:00,38.5,38.5,29.81,ESE,102,1.0,6.0,100,0.00,,,0.08,Weather View 32 v70,2013-02-13 04:16:00,
2013-02-12 23:21:00,38.5,38.5,29.81,ENE,65,0.0,6.0,100,0.00,,,0.08,Weather View 32 v70,2013-02-13 04:21:00,
2013-02-12 23:26:00,38.5,38.5,29.82,SW,226,2.0,6.0,100,0.00,,,0.08,Weather View 32 v70,2013-02-13 04:26:00,
2013-02-12 23:31:00,38.5,38.5,29.82,SSW,197,2.0,8.0,100,0.00,,,0.08,Weather View 32 v70,2013-02-13 04:31:00,
2013-02-12 23:36:00,38.5,38.5,29.83,NE,54,0.0,8.0,100,0.00,,,0.08,Weather View 32 v70,2013-02-13 04:36:00,
2013-02-12 23:41:00,38.5,38.5,29.82,WSW,238,0.0,8.0,100,0.00,,,0.08,Weather View 32 v70,2013-02-13 04:41:00,
2013-02-12 23:46:00,38.6,38.6,29.81,SSW,209,0.0,8.0,100,0.00,,,0.08,Weather View 32 v70,2013-02-13 04:46:00,
2013-02-12 23:51:00,38.6,38.6,29.81,SSW,203,2.0,8.0,100,0.00,,,0.08,Weather View 32 v70,2013-02-13 04:51:00,
2013-02-12 23:56:00,38.5,38.5,29.80,NE,42,1.0,8.0,100,0.00,,,0.08,Weather View 32 v70,2013-02-13 04:56:00,